Dana Pride — WE00 — position and weather

sailwx.info

Track history (hours):
 
Tides and Currents Weather Stations Pressure Air Temp Water Temp Dewpoint Dewpoint Depression Visibility Wind Speed Wind Dir Waves Ship Positions

Dana Pride

Last reported at 2017-Oct-20 01:30 UTC. Time now 2017-Oct-20 01:35 UTC.
Position N 33°28' W 117°42'.

Type: Fishing. MMSI: 366849310.

Date/timePositionNaut miles runAvg speedWind from/ knotsBaromVisibWave heightAir tempDewpointWater temp
2017-Oct-20 01:30N 33°28' W 117°42'0 0.0
2017-Oct-20 01:00N 33°28' W 117°42'0 0.0
2017-Oct-20 00:30N 33°28' W 117°42'0 0.0
2017-Oct-20 00:00N 33°28' W 117°42'0 0.0
2017-Oct-19 23:30N 33°28' W 117°42'0 0.0
2017-Oct-19 22:24N 33°28' W 117°42'1 2.6
2017-Oct-19 22:00N 33°27' W 117°41'5 9.9
2017-Oct-19 21:30N 33°22' W 117°38'510.1
2017-Oct-19 21:00N 33°18' W 117°35'1 2.5
2017-Oct-19 20:30N 33°17' W 117°34'0 0.0
2017-Oct-19 20:00N 33°17' W 117°34'1 1.5
2017-Oct-19 19:30N 33°17' W 117°35'0 0.1
2017-Oct-19 19:00N 33°17' W 117°35'1 1.2
2017-Oct-19 18:30N 33°17' W 117°35'0 0.1
2017-Oct-19 18:00N 33°17' W 117°35'0 0.2
2017-Oct-19 17:30N 33°17' W 117°35'0 0.7
2017-Oct-19 17:00N 33°16' W 117°35'0 0.0
2017-Oct-19 16:30N 33°16' W 117°35'0 0.0
2017-Oct-19 16:00N 33°16' W 117°35'0 0.0
2017-Oct-19 15:30N 33°16' W 117°35'0 0.0
2017-Oct-19 15:00N 33°16' W 117°35'1 1.9
2017-Oct-19 14:30N 33°17' W 117°35'5 9.7
2017-Oct-19 14:00N 33°21' W 117°38'6 9.7
2017-Oct-19 13:26N 33°26' W 117°42'1 3.3
2017-Oct-19 13:00N 33°28' W 117°42'0 0.0
2017-Oct-19 12:30N 33°28' W 117°42'0 0.0
2017-Oct-19 11:56N 33°28' W 117°42'0 0.0
2017-Oct-19 11:30N 33°28' W 117°42'0 0.0
2017-Oct-19 11:00N 33°28' W 117°42'0 0.0
2017-Oct-19 10:30N 33°28' W 117°42'0 0.0
2017-Oct-19 10:00N 33°28' W 117°42'0 0.0
2017-Oct-19 09:30N 33°28' W 117°42'0 0.0
2017-Oct-19 09:00N 33°28' W 117°42'0 0.0
2017-Oct-19 08:30N 33°28' W 117°42'0 0.0
2017-Oct-19 08:00N 33°28' W 117°42'0 0.0
2017-Oct-19 07:30N 33°28' W 117°42'0 0.0
2017-Oct-19 06:57N 33°28' W 117°42'0 0.0
2017-Oct-19 06:27N 33°28' W 117°42'0 0.0
2017-Oct-19 06:00N 33°28' W 117°42'0 0.0
2017-Oct-19 05:30N 33°28' W 117°42'0 0.0
2017-Oct-19 04:58N 33°28' W 117°42'0 0.0
2017-Oct-19 04:30N 33°28' W 117°42'0 0.0
2017-Oct-19 04:00N 33°28' W 117°42'0 0.0
2017-Oct-19 03:30N 33°28' W 117°42'0 0.0
2017-Oct-19 03:00N 33°28' W 117°42'0 0.0
2017-Oct-19 02:30N 33°28' W 117°42'0 0.0
2017-Oct-19 02:00N 33°28' W 117°42'0 0.0
2017-Oct-19 01:23N 33°28' W 117°42'0 0.0
2017-Oct-19 01:00N 33°28' W 117°42'0 0.0
2017-Oct-19 00:29N 33°28' W 117°42'0 0.0
2017-Oct-19 00:00N 33°28' W 117°42'0 0.0
2017-Oct-18 23:30N 33°28' W 117°42'0 0.0
2017-Oct-18 23:00N 33°28' W 117°42'0 0.0
2017-Oct-18 22:30N 33°28' W 117°42'0 0.0
2017-Oct-18 21:53N 33°28' W 117°42'0 0.0
2017-Oct-18 21:16N 33°28' W 117°42'0 0.0
2017-Oct-18 20:47N 33°28' W 117°42'0 0.0
2017-Oct-18 20:30N 33°28' W 117°42'0 0.0
2017-Oct-18 20:00N 33°28' W 117°42'0 0.0
2017-Oct-18 19:30N 33°28' W 117°42'0 0.0
2017-Oct-18 19:00N 33°28' W 117°42'1 1.2
2017-Oct-18 18:30N 33°27' W 117°42'  
Track history (hours):
 
Tides and Currents Weather Stations Pressure Air Temp Water Temp Dewpoint Dewpoint Depression Visibility Wind Speed Wind Dir Waves Ship Positions

Dana Pride

Last reported at 2017-Oct-20 01:30 UTC. Time now 2017-Oct-20 01:35 UTC.
Position N 33°28' W 117°42'.

Type: Fishing. MMSI: 366849310.

Date/timePositionNaut miles runAvg speedWind from/ knotsBaromVisibWave heightAir tempDewpointWater temp
2017-Oct-20 01:30N 33°28' W 117°42'0 0.0
2017-Oct-20 01:00N 33°28' W 117°42'0 0.0
2017-Oct-20 00:30N 33°28' W 117°42'0 0.0
2017-Oct-20 00:00N 33°28' W 117°42'0 0.0
2017-Oct-19 23:30N 33°28' W 117°42'0 0.0
2017-Oct-19 22:24N 33°28' W 117°42'1 2.6
2017-Oct-19 22:00N 33°27' W 117°41'5 9.9
2017-Oct-19 21:30N 33°22' W 117°38'510.1
2017-Oct-19 21:00N 33°18' W 117°35'1 2.5
2017-Oct-19 20:30N 33°17' W 117°34'0 0.0
2017-Oct-19 20:00N 33°17' W 117°34'1 1.5
2017-Oct-19 19:30N 33°17' W 117°35'0 0.1
2017-Oct-19 19:00N 33°17' W 117°35'1 1.2
2017-Oct-19 18:30N 33°17' W 117°35'0 0.1
2017-Oct-19 18:00N 33°17' W 117°35'0 0.2
2017-Oct-19 17:30N 33°17' W 117°35'0 0.7
2017-Oct-19 17:00N 33°16' W 117°35'0 0.0
2017-Oct-19 16:30N 33°16' W 117°35'0 0.0
2017-Oct-19 16:00N 33°16' W 117°35'0 0.0
2017-Oct-19 15:30N 33°16' W 117°35'0 0.0
2017-Oct-19 15:00N 33°16' W 117°35'1 1.9
2017-Oct-19 14:30N 33°17' W 117°35'5 9.7
2017-Oct-19 14:00N 33°21' W 117°38'6 9.7
2017-Oct-19 13:26N 33°26' W 117°42'1 3.3
2017-Oct-19 13:00N 33°28' W 117°42'0 0.0
2017-Oct-19 12:30N 33°28' W 117°42'0 0.0
2017-Oct-19 11:56N 33°28' W 117°42'0 0.0
2017-Oct-19 11:30N 33°28' W 117°42'0 0.0
2017-Oct-19 11:00N 33°28' W 117°42'0 0.0
2017-Oct-19 10:30N 33°28' W 117°42'0 0.0
2017-Oct-19 10:00N 33°28' W 117°42'0 0.0
2017-Oct-19 09:30N 33°28' W 117°42'0 0.0
2017-Oct-19 09:00N 33°28' W 117°42'0 0.0
2017-Oct-19 08:30N 33°28' W 117°42'0 0.0
2017-Oct-19 08:00N 33°28' W 117°42'0 0.0
2017-Oct-19 07:30N 33°28' W 117°42'0 0.0
2017-Oct-19 06:57N 33°28' W 117°42'0 0.0
2017-Oct-19 06:27N 33°28' W 117°42'0 0.0
2017-Oct-19 06:00N 33°28' W 117°42'0 0.0
2017-Oct-19 05:30N 33°28' W 117°42'0 0.0
2017-Oct-19 04:58N 33°28' W 117°42'0 0.0
2017-Oct-19 04:30N 33°28' W 117°42'0 0.0
2017-Oct-19 04:00N 33°28' W 117°42'0 0.0
2017-Oct-19 03:30N 33°28' W 117°42'0 0.0
2017-Oct-19 03:00N 33°28' W 117°42'0 0.0
2017-Oct-19 02:30N 33°28' W 117°42'0 0.0
2017-Oct-19 02:00N 33°28' W 117°42'0 0.0
2017-Oct-19 01:23N 33°28' W 117°42'0 0.0
2017-Oct-19 01:00N 33°28' W 117°42'0 0.0
2017-Oct-19 00:29N 33°28' W 117°42'0 0.0
2017-Oct-19 00:00N 33°28' W 117°42'0 0.0
2017-Oct-18 23:30N 33°28' W 117°42'0 0.0
2017-Oct-18 23:00N 33°28' W 117°42'0 0.0
2017-Oct-18 22:30N 33°28' W 117°42'0 0.0
2017-Oct-18 21:53N 33°28' W 117°42'0 0.0
2017-Oct-18 21:16N 33°28' W 117°42'0 0.0
2017-Oct-18 20:47N 33°28' W 117°42'0 0.0
2017-Oct-18 20:30N 33°28' W 117°42'0 0.0
2017-Oct-18 20:00N 33°28' W 117°42'0 0.0
2017-Oct-18 19:30N 33°28' W 117°42'0 0.0
2017-Oct-18 19:00N 33°28' W 117°42'1 1.2
2017-Oct-18 18:30N 33°27' W 117°42'  

Dump ship's entire track history